createdAt,value
2018-02-19T00:00:51.303Z,75.32
2018-02-19T00:03:18.765Z,75.03
2018-02-19T00:05:46.267Z,75.22
2018-02-19T00:08:13.776Z,75.27
2018-02-19T00:10:41.476Z,76.03
2018-02-19T00:13:09.116Z,76.11
2018-02-19T00:15:37.371Z,75.44
2018-02-19T00:18:05.077Z,75.09
2018-02-19T00:20:32.568Z,75.80
2018-02-19T00:23:00.053Z,76.17
2018-02-19T00:25:27.564Z,75.29
2018-02-19T00:27:55.032Z,75.65
2018-02-19T00:30:22.551Z,75.85
2018-02-19T00:32:51.014Z,76.33
2018-02-19T00:35:18.498Z,76.00
2018-02-19T00:37:46.043Z,75.05
2018-02-19T00:40:13.529Z,75.05
2018-02-19T00:42:41.116Z,75.59
2018-02-19T00:45:08.655Z,76.38
2018-02-19T00:47:36.111Z,76.22
2018-02-19T00:50:03.613Z,76.19
2018-02-19T00:52:31.167Z,76.18
2018-02-19T00:54:58.699Z,75.99
2018-02-19T00:57:26.264Z,76.56
2018-02-19T00:59:53.775Z,76.59
2018-02-19T01:02:21.299Z,76.39
2018-02-19T01:04:48.792Z,76.00
2018-02-19T01:07:16.288Z,76.24
2018-02-19T01:09:43.771Z,76.52
2018-02-19T01:12:11.270Z,76.48
2018-02-19T01:14:38.723Z,76.47
2018-02-19T01:17:06.194Z,76.27
2018-02-19T01:19:33.658Z,76.31
2018-02-19T01:22:01.128Z,76.69
2018-02-19T01:24:28.613Z,76.82
2018-02-19T01:26:56.096Z,77.30
2018-02-19T01:29:23.556Z,77.32
2018-02-19T01:31:51.040Z,77.23
2018-02-19T01:34:18.512Z,77.00
2018-02-19T01:36:45.976Z,77.22
2018-02-19T01:39:13.444Z,77.36
2018-02-19T01:41:40.902Z,78.16
2018-02-19T01:44:08.567Z,78.46
2018-02-19T01:46:36.029Z,78.45
2018-02-19T01:49:03.511Z,78.69
2018-02-19T01:51:30.968Z,78.42
2018-02-19T01:53:58.582Z,78.88
2018-02-19T01:56:26.090Z,78.77
2018-02-19T01:58:53.553Z,78.11
2018-02-19T02:01:21.028Z,78.05
2018-02-19T02:03:48.550Z,77.72
2018-02-19T02:06:16.013Z,78.34
2018-02-19T02:08:43.490Z,78.50
2018-02-19T02:11:10.964Z,78.66
2018-02-19T02:13:38.477Z,79.00
2018-02-19T02:16:05.926Z,79.42
2018-02-19T02:18:33.403Z,79.74
2018-02-19T02:21:00.864Z,79.44
2018-02-19T02:23:28.357Z,79.06
2018-02-19T02:25:55.826Z,79.30
2018-02-19T02:28:23.322Z,79.48
2018-02-19T02:30:50.827Z,79.71
2018-02-19T02:33:18.287Z,79.77
2018-02-19T02:35:45.756Z,79.66
2018-02-19T02:38:13.232Z,79.83
2018-02-19T02:40:40.693Z,79.45
2018-02-19T02:43:08.166Z,78.99
2018-02-19T02:45:35.666Z,78.96
2018-02-19T02:48:03.150Z,78.99
2018-02-19T02:50:30.609Z,79.24
2018-02-19T02:52:58.083Z,79.32
2018-02-19T02:55:25.616Z,79.20
2018-02-19T02:57:53.106Z,79.49
2018-02-19T03:00:20.580Z,79.89
2018-02-19T03:02:48.111Z,79.58
2018-02-19T03:05:15.644Z,79.59
2018-02-19T03:07:43.119Z,80.25
2018-02-19T03:10:10.587Z,80.91
2018-02-19T03:12:38.229Z,80.94
2018-02-19T03:15:05.742Z,81.20
2018-02-19T03:17:33.223Z,80.84
2018-02-19T03:20:00.719Z,80.29
2018-02-19T03:22:28.184Z,80.73
2018-02-19T03:24:55.634Z,80.85
2018-02-19T03:27:23.111Z,80.67
2018-02-19T03:29:50.570Z,80.25
2018-02-19T03:32:18.035Z,80.66
2018-02-19T03:34:45.515Z,80.73
2018-02-19T03:37:12.978Z,79.60
2018-02-19T03:39:40.445Z,79.41
2018-02-19T03:42:07.906Z,79.10
2018-02-19T03:44:35.366Z,78.88
2018-02-19T03:47:02.862Z,79.15
2018-02-19T03:49:30.351Z,78.80
2018-02-19T03:51:57.807Z,78.65
2018-02-19T03:54:25.380Z,79.11
2018-02-19T03:56:53.491Z,79.09
2018-02-19T03:59:20.959Z,79.52
2018-02-19T04:01:48.409Z,80.27
2018-02-19T04:04:15.960Z,80.40
2018-02-19T04:06:43.423Z,80.02
2018-02-19T04:09:10.899Z,80.31
2018-02-19T04:11:38.375Z,80.14
2018-02-19T04:14:05.852Z,80.71
2018-02-19T04:16:33.342Z,81.31
2018-02-19T04:19:00.812Z,81.00
2018-02-19T04:21:28.274Z,80.80
2018-02-19T04:23:55.732Z,81.31
2018-02-19T04:26:23.214Z,81.42
2018-02-19T04:28:50.682Z,80.94
2018-02-19T04:31:18.157Z,80.99
2018-02-19T04:33:45.628Z,81.05
2018-02-19T04:36:13.104Z,80.65
2018-02-19T04:38:40.566Z,80.99
2018-02-19T04:41:08.047Z,81.30
2018-02-19T04:43:35.592Z,81.25
2018-02-19T04:46:05.871Z,81.23
2018-02-19T04:48:34.379Z,81.68
2018-02-19T04:51:01.845Z,82.44
2018-02-19T04:53:29.321Z,82.76
2018-02-19T04:55:56.903Z,82.84
2018-02-19T04:58:24.386Z,83.03
2018-02-19T05:00:51.854Z,82.89
2018-02-19T05:03:19.378Z,82.74
2018-02-19T05:05:46.843Z,83.25
2018-02-19T05:08:14.299Z,83.28
2018-02-19T05:10:41.779Z,82.57
2018-02-19T05:13:09.244Z,82.85
2018-02-19T05:15:36.741Z,82.36
2018-02-19T05:18:04.209Z,82.44
2018-02-19T05:20:31.667Z,83.03
2018-02-19T05:22:59.221Z,83.32
2018-02-19T05:25:26.648Z,82.83
2018-02-19T05:27:54.115Z,82.92
2018-02-19T05:30:21.600Z,82.96
2018-02-19T05:32:49.064Z,83.15
2018-02-19T05:35:16.525Z,83.43
2018-02-19T05:37:44.095Z,83.87
2018-02-19T05:40:11.552Z,83.78
2018-02-19T05:42:39.051Z,83.67
2018-02-19T05:45:06.497Z,83.65
2018-02-19T05:47:33.997Z,84.13
2018-02-19T05:50:01.462Z,84.36
2018-02-19T05:52:28.923Z,84.78
2018-02-19T05:54:56.384Z,85.18
2018-02-19T05:57:23.895Z,85.74
2018-02-19T05:59:51.374Z,86.03
2018-02-19T06:02:18.832Z,86.10
2018-02-19T06:04:46.311Z,85.93
2018-02-19T06:07:13.775Z,85.65
2018-02-19T06:09:41.262Z,85.82
2018-02-19T06:12:08.747Z,86.22
2018-02-19T06:14:36.219Z,86.52
2018-02-19T06:17:03.687Z,86.66
2018-02-19T06:19:31.164Z,86.54
2018-02-19T06:21:58.657Z,85.75
2018-02-19T06:24:26.207Z,85.64
2018-02-19T06:26:53.713Z,85.55
2018-02-19T06:29:21.203Z,85.52
2018-02-19T06:31:48.664Z,85.69
2018-02-19T06:34:16.146Z,85.28
2018-02-19T06:36:43.598Z,84.30
2018-02-19T06:39:11.063Z,83.96
2018-02-19T06:41:38.540Z,83.44
2018-02-19T06:44:06.072Z,83.36
2018-02-19T06:46:33.623Z,83.04
2018-02-19T06:49:01.076Z,82.85
2018-02-19T06:51:28.589Z,82.80
2018-02-19T06:53:56.059Z,82.29
2018-02-19T06:56:23.558Z,82.24
2018-02-19T06:58:51.028Z,82.00
2018-02-19T07:01:18.492Z,82.03
2018-02-19T07:03:46.452Z,82.61
2018-02-19T07:06:13.917Z,83.00
2018-02-19T07:08:41.546Z,83.08
2018-02-19T07:11:08.975Z,82.89
2018-02-19T07:13:36.436Z,82.77
2018-02-19T07:16:03.992Z,82.29
2018-02-19T07:18:31.528Z,82.02
2018-02-19T07:20:58.994Z,81.51
2018-02-19T07:23:26.467Z,81.25
2018-02-19T07:25:53.928Z,80.93
2018-02-19T07:28:21.411Z,81.04
2018-02-19T07:30:48.878Z,80.92
2018-02-19T07:33:16.446Z,80.59
2018-02-19T07:35:43.915Z,80.55
2018-02-19T07:38:11.391Z,80.28
2018-02-19T07:40:38.842Z,80.12
2018-02-19T07:43:06.327Z,79.95
2018-02-19T07:45:33.788Z,79.10
2018-02-19T07:48:01.254Z,78.65
2018-02-19T07:50:28.726Z,78.97
2018-02-19T07:52:56.214Z,78.77
2018-02-19T07:55:23.684Z,78.22
2018-02-19T07:57:51.143Z,78.44
2018-02-19T08:00:18.628Z,78.51
2018-02-19T08:02:46.108Z,78.43
2018-02-19T08:05:13.560Z,78.64
2018-02-19T08:07:41.023Z,78.38
2018-02-19T08:10:08.491Z,78.43
2018-02-19T08:12:36.144Z,77.98
2018-02-19T08:15:03.614Z,77.74
2018-02-19T08:17:31.081Z,77.53
2018-02-19T08:19:58.543Z,77.62
2018-02-19T08:22:26.039Z,77.49
2018-02-19T08:24:53.495Z,77.38
2018-02-19T08:27:20.957Z,77.11
2018-02-19T08:29:48.434Z,76.66
2018-02-19T08:32:15.893Z,75.96
2018-02-19T08:34:43.387Z,75.79
2018-02-19T08:37:11.016Z,75.61
2018-02-19T08:39:38.630Z,75.44
2018-02-19T08:42:06.100Z,75.12
2018-02-19T08:44:33.654Z,74.99
2018-02-19T08:47:01.493Z,74.84
2018-02-19T08:49:28.950Z,74.65
2018-02-19T08:51:56.407Z,74.57
2018-02-19T08:54:24.028Z,74.58
2018-02-19T08:56:51.663Z,74.65
2018-02-19T08:59:19.160Z,74.42
2018-02-19T09:01:46.620Z,74.25
2018-02-19T09:04:14.088Z,73.90
2018-02-19T09:06:41.567Z,73.58
2018-02-19T09:09:09.174Z,73.05
2018-02-19T09:11:36.659Z,73.16
2018-02-19T09:14:04.139Z,72.57
2018-02-19T09:16:31.596Z,72.89
2018-02-19T09:18:59.131Z,73.06
2018-02-19T09:21:27.007Z,72.26
2018-02-19T09:23:54.477Z,72.07
2018-02-19T09:26:21.958Z,71.56
2018-02-19T09:28:49.409Z,71.71
2018-02-19T09:31:16.861Z,71.34
2018-02-19T09:33:44.367Z,70.98
2018-02-19T09:36:11.856Z,70.54
2018-02-19T09:38:39.331Z,70.40
2018-02-19T09:41:06.786Z,70.48
2018-02-19T09:43:34.287Z,70.14
2018-02-19T09:46:01.739Z,70.27
2018-02-19T09:48:29.229Z,69.41
2018-02-19T09:50:56.695Z,68.96
2018-02-19T09:53:24.147Z,69.33
2018-02-19T09:55:51.610Z,69.52
2018-02-19T09:58:19.094Z,69.72
2018-02-19T10:00:46.568Z,69.27
2018-02-19T10:03:14.070Z,69.07
2018-02-19T10:05:42.378Z,69.15
2018-02-19T10:08:09.846Z,69.11
2018-02-19T10:10:37.530Z,68.91
2018-02-19T10:13:04.991Z,68.40
2018-02-19T10:15:32.471Z,67.45
2018-02-19T10:18:00.107Z,67.59
2018-02-19T10:20:27.560Z,67.62
2018-02-19T10:22:55.030Z,67.04
2018-02-19T10:25:22.483Z,67.14
2018-02-19T10:27:49.944Z,65.89
2018-02-19T10:30:17.416Z,62.23
2018-02-19T10:32:44.880Z,61.62
2018-02-19T10:35:12.358Z,60.52
2018-02-19T10:37:39.798Z,59.50
2018-02-19T10:40:07.256Z,60.37
2018-02-19T10:42:34.711Z,60.51
2018-02-19T10:45:02.167Z,60.54
2018-02-19T10:47:29.631Z,60.52
2018-02-19T10:49:57.123Z,60.75
2018-02-19T10:52:24.579Z,58.74
2018-02-19T10:54:52.039Z,57.16
2018-02-19T10:57:19.509Z,56.56
2018-02-19T10:59:46.969Z,55.92
2018-02-19T11:02:14.414Z,55.92
2018-02-19T11:04:41.890Z,56.21
2018-02-19T11:07:09.340Z,55.61
2018-02-19T11:09:36.807Z,55.32
2018-02-19T11:12:04.272Z,55.05
2018-02-19T11:14:31.760Z,55.87
2018-02-19T11:16:59.217Z,56.03
2018-02-19T11:19:26.659Z,56.47
2018-02-19T11:21:54.111Z,56.42
2018-02-19T11:24:21.591Z,56.94
2018-02-19T11:26:49.087Z,57.27
2018-02-19T11:29:16.583Z,57.31
2018-02-19T11:31:44.043Z,57.55
2018-02-19T11:34:11.507Z,57.90
2018-02-19T11:36:39.098Z,57.45
2018-02-19T11:39:06.559Z,57.39
2018-02-19T11:41:34.035Z,57.23
2018-02-19T11:44:01.559Z,57.35
2018-02-19T11:46:29.022Z,57.79
2018-02-19T11:48:56.496Z,57.52
2018-02-19T11:51:23.955Z,56.99
2018-02-19T11:53:51.425Z,57.01
2018-02-19T11:56:18.912Z,57.35
2018-02-19T11:58:46.355Z,56.97
2018-02-19T12:01:13.813Z,57.76
2018-02-19T12:03:41.479Z,57.81
2018-02-19T12:06:09.002Z,58.05
2018-02-19T12:08:36.413Z,58.16
2018-02-19T12:11:03.922Z,57.33
2018-02-19T12:13:32.358Z,57.18
2018-02-19T12:15:59.851Z,56.13
2018-02-19T12:18:27.909Z,55.58
2018-02-19T12:20:55.520Z,55.07
2018-02-19T12:23:22.978Z,54.84
2018-02-19T12:25:50.454Z,54.84
2018-02-19T12:28:17.919Z,54.53
2018-02-19T12:30:45.403Z,53.68
2018-02-19T12:33:12.877Z,53.65
2018-02-19T12:35:40.360Z,52.62
2018-02-19T12:38:07.822Z,52.57
2018-02-19T12:40:35.289Z,52.60
2018-02-19T12:43:02.746Z,52.39
2018-02-19T12:45:30.233Z,52.61
2018-02-19T12:47:57.697Z,52.86
2018-02-19T12:50:25.152Z,52.45
2018-02-19T12:52:52.611Z,52.76
2018-02-19T12:55:20.064Z,52.84
2018-02-19T12:57:47.520Z,52.79
2018-02-19T13:00:15.001Z,52.82
2018-02-19T13:02:42.459Z,52.95
2018-02-19T13:05:09.923Z,52.48
2018-02-19T13:07:37.487Z,52.85
2018-02-19T13:10:04.964Z,52.88
2018-02-19T13:12:32.445Z,52.46
2018-02-19T13:14:59.899Z,52.10
2018-02-19T13:17:27.354Z,52.25
2018-02-19T13:19:54.828Z,51.95
2018-02-19T13:22:22.277Z,51.80
2018-02-19T13:24:49.760Z,51.69
2018-02-19T13:27:17.263Z,51.92
2018-02-19T13:29:44.719Z,51.77
2018-02-19T13:32:12.195Z,51.96
2018-02-19T13:34:39.738Z,52.15
2018-02-19T13:37:07.203Z,51.77
2018-02-19T13:39:34.939Z,51.96
2018-02-19T13:42:02.150Z,52.13
2018-02-19T13:44:29.624Z,52.63
2018-02-19T13:46:57.147Z,52.87
2018-02-19T13:49:24.593Z,53.26
2018-02-19T13:51:52.062Z,54.04
2018-02-19T13:54:19.532Z,54.80
2018-02-19T13:56:46.985Z,54.86
2018-02-19T13:59:14.441Z,55.05
2018-02-19T14:01:41.909Z,55.72
2018-02-19T14:04:09.371Z,55.72
2018-02-19T14:06:36.843Z,55.72
2018-02-19T14:09:04.334Z,55.73
2018-02-19T14:11:31.861Z,55.22
2018-02-19T14:13:59.304Z,55.55
2018-02-19T14:16:26.786Z,55.23
2018-02-19T14:18:54.246Z,54.71
2018-02-19T14:21:21.832Z,54.13
2018-02-19T14:23:49.334Z,53.48
2018-02-19T14:26:16.802Z,53.21
2018-02-19T14:28:44.291Z,53.50
2018-02-19T14:31:11.763Z,53.92
2018-02-19T14:33:39.254Z,54.44
2018-02-19T14:36:06.756Z,55.04
2018-02-19T14:38:34.234Z,54.81
2018-02-19T14:41:01.718Z,55.53
2018-02-19T14:43:29.212Z,56.06
2018-02-19T14:45:56.701Z,56.42
2018-02-19T14:48:25.477Z,57.04
2018-02-19T14:50:52.943Z,57.36
2018-02-19T14:53:20.405Z,57.82
2018-02-19T14:55:47.888Z,57.97
2018-02-19T14:58:15.347Z,58.49
2018-02-19T15:00:43.691Z,58.79
2018-02-19T15:03:11.173Z,59.53
2018-02-19T15:05:38.642Z,59.41
2018-02-19T15:08:06.154Z,59.87
2018-02-19T15:10:33.668Z,60.20
2018-02-19T15:13:01.135Z,60.57
2018-02-19T15:15:28.658Z,60.79
2018-02-19T15:17:56.145Z,61.24
2018-02-19T15:20:23.605Z,61.57
2018-02-19T15:22:51.068Z,61.84
2018-02-19T15:25:18.545Z,62.25
2018-02-19T15:27:46.064Z,62.08
2018-02-19T15:30:13.538Z,62.54
2018-02-19T15:32:41.054Z,62.74
2018-02-19T15:35:08.539Z,63.09
2018-02-19T15:37:36.075Z,63.21
2018-02-19T15:40:03.574Z,63.65
2018-02-19T15:42:31.074Z,63.90
2018-02-19T15:44:58.573Z,64.47
2018-02-19T15:47:26.109Z,64.68
2018-02-19T15:49:53.621Z,65.48
2018-02-19T15:52:21.106Z,65.93
2018-02-19T15:54:48.610Z,66.62
2018-02-19T15:57:17.450Z,67.21
2018-02-19T15:59:44.931Z,67.89
2018-02-19T16:02:12.435Z,68.47
2018-02-19T16:04:40.184Z,68.92
2018-02-19T16:07:07.687Z,69.28
2018-02-19T16:09:35.165Z,69.80
2018-02-19T16:12:02.661Z,70.27
2018-02-19T16:14:30.197Z,70.71
2018-02-19T16:16:57.662Z,70.84
2018-02-19T16:19:25.124Z,71.39
2018-02-19T16:21:52.573Z,71.71
2018-02-19T16:24:20.037Z,72.08
2018-02-19T16:26:47.512Z,72.52
2018-02-19T16:29:15.040Z,72.56
2018-02-19T16:31:42.507Z,73.11
2018-02-19T16:34:09.972Z,73.78
2018-02-19T16:36:37.583Z,73.78
2018-02-19T16:39:05.105Z,74.06
2018-02-19T16:41:32.694Z,74.49
2018-02-19T16:44:00.261Z,75.22
2018-02-19T16:46:27.748Z,75.22
2018-02-19T16:48:55.219Z,75.35
2018-02-19T16:51:22.704Z,75.83
2018-02-19T16:53:50.190Z,75.90
2018-02-19T16:56:17.716Z,76.07
2018-02-19T16:58:45.203Z,76.30
2018-02-19T17:01:12.728Z,76.33
2018-02-19T17:03:40.213Z,76.44
2018-02-19T17:06:07.747Z,76.63
2018-02-19T17:08:35.265Z,76.84
2018-02-19T17:11:02.735Z,76.80
2018-02-19T17:13:30.192Z,76.95
2018-02-19T17:15:57.699Z,77.05
2018-02-19T17:18:26.075Z,77.25
2018-02-19T17:20:53.651Z,77.30
2018-02-19T17:23:21.147Z,77.00
2018-02-19T17:25:48.657Z,76.86
2018-02-19T17:28:16.170Z,76.72
2018-02-19T17:30:43.652Z,76.88
2018-02-19T17:33:11.180Z,77.16
2018-02-19T17:35:38.748Z,77.26
2018-02-19T17:38:06.235Z,77.26
2018-02-19T17:40:33.728Z,77.25
2018-02-19T17:43:01.291Z,77.52
2018-02-19T17:45:28.780Z,77.72
2018-02-19T17:47:56.343Z,77.83
2018-02-19T17:50:23.859Z,77.78
2018-02-19T17:52:51.914Z,78.04
2018-02-19T17:55:19.686Z,77.63
2018-02-19T17:57:47.186Z,77.76
2018-02-19T18:00:14.671Z,77.93
2018-02-19T18:02:42.184Z,78.25
2018-02-19T18:05:09.677Z,78.58
2018-02-19T18:07:37.155Z,78.65
2018-02-19T18:10:04.660Z,78.91
2018-02-19T18:12:32.443Z,79.32
2018-02-19T18:14:59.951Z,79.66
2018-02-19T18:17:27.479Z,79.66
2018-02-19T18:19:54.965Z,79.75
2018-02-19T18:22:22.459Z,79.99
2018-02-19T18:24:49.948Z,80.10
2018-02-19T18:27:17.434Z,80.10
2018-02-19T18:29:44.930Z,80.38
2018-02-19T18:32:12.433Z,80.54
2018-02-19T18:34:39.927Z,80.62
2018-02-19T18:37:07.449Z,80.64
2018-02-19T18:39:34.973Z,80.24
2018-02-19T18:42:02.475Z,79.89
2018-02-19T18:44:29.981Z,78.86
2018-02-19T18:46:57.485Z,78.95
2018-02-19T18:49:24.998Z,78.98
2018-02-19T18:51:52.511Z,79.10
2018-02-19T18:54:20.045Z,79.28
2018-02-19T18:56:48.361Z,78.95
2018-02-19T18:59:15.845Z,78.88
2018-02-19T19:01:43.412Z,79.07
2018-02-19T19:04:10.912Z,79.14
2018-02-19T19:06:38.444Z,79.16
2018-02-19T19:12:11.093Z,79.04
2018-02-19T19:14:38.607Z,78.65
2018-02-19T19:17:06.089Z,78.92
2018-02-19T19:19:33.723Z,78.59
2018-02-19T19:22:02.171Z,78.48
2018-02-19T19:24:29.826Z,78.58
2018-02-19T19:26:57.321Z,78.58
2018-02-19T19:29:24.826Z,78.43
2018-02-19T19:31:52.323Z,78.46
2018-02-19T19:34:19.835Z,78.30
2018-02-19T19:36:47.366Z,78.03
2018-02-19T19:39:15.131Z,78.03
2018-02-19T19:41:42.639Z,78.26
2018-02-19T19:44:10.140Z,78.49
2018-02-19T19:46:37.635Z,78.79
2018-02-19T19:49:05.219Z,79.03
2018-02-19T19:51:32.722Z,79.19
2018-02-19T19:54:00.213Z,79.53
2018-02-19T19:56:27.736Z,79.60
2018-02-19T19:58:55.219Z,79.79
2018-02-19T20:01:22.722Z,79.85
2018-02-19T20:03:50.253Z,79.98
2018-02-19T20:06:17.741Z,79.57
2018-02-19T20:08:45.233Z,79.16
2018-02-19T20:11:12.806Z,79.07
2018-02-19T20:13:40.310Z,79.07
2018-02-19T20:16:07.798Z,79.03
2018-02-19T20:18:35.340Z,79.15
2018-02-19T20:21:02.818Z,79.30
2018-02-19T20:23:30.318Z,79.35
2018-02-19T20:25:57.892Z,79.32
2018-02-19T20:28:25.401Z,79.12
2018-02-19T20:30:52.914Z,78.96
2018-02-19T20:33:20.566Z,78.87
2018-02-19T20:35:48.052Z,78.90
2018-02-19T20:38:15.624Z,79.11
2018-02-19T20:40:43.105Z,79.28
2018-02-19T20:43:10.607Z,79.69
2018-02-19T20:45:38.108Z,79.66
2018-02-19T20:48:05.672Z,79.75
2018-02-19T20:50:33.148Z,79.82
2018-02-19T20:53:00.677Z,79.93
2018-02-19T20:55:28.171Z,80.01
2018-02-19T20:57:55.721Z,80.19
2018-02-19T21:00:23.267Z,80.15
2018-02-19T21:02:50.879Z,80.02
2018-02-19T21:05:18.390Z,79.96
2018-02-19T21:07:45.925Z,80.06
2018-02-19T21:10:13.421Z,79.78
2018-02-19T21:12:40.932Z,79.51
2018-02-19T21:15:08.448Z,79.04
2018-02-19T21:17:35.952Z,77.71
2018-02-19T21:20:03.431Z,77.36
2018-02-19T21:22:30.931Z,76.94
2018-02-19T21:25:04.072Z,76.50
2018-02-19T21:27:31.563Z,75.63
2018-02-19T21:29:59.047Z,75.45
2018-02-19T21:32:27.718Z,74.82
2018-02-19T21:34:55.200Z,74.45
2018-02-19T21:37:22.696Z,74.14
2018-02-19T21:39:50.265Z,73.99
2018-02-19T21:42:17.763Z,73.78
2018-02-19T21:44:45.241Z,73.29
2018-02-19T21:47:12.780Z,73.17
2018-02-19T21:49:40.332Z,72.95
2018-02-19T21:52:07.809Z,73.11
2018-02-19T21:54:35.305Z,73.33
2018-02-19T21:57:02.775Z,73.65
2018-02-19T21:59:30.348Z,73.80
2018-02-19T22:01:57.814Z,73.75
2018-02-19T22:04:25.289Z,73.83
2018-02-19T22:06:52.771Z,74.14
2018-02-19T22:09:20.412Z,74.07
2018-02-19T22:11:47.890Z,74.25
2018-02-19T22:14:15.376Z,74.34
2018-02-19T22:16:42.852Z,74.49
2018-02-19T22:19:10.443Z,74.19
2018-02-19T22:21:37.930Z,73.99
2018-02-19T22:24:05.468Z,74.02
2018-02-19T22:26:32.944Z,73.76
2018-02-19T22:29:00.524Z,73.86
2018-02-19T22:31:28.161Z,73.97
2018-02-19T22:33:55.653Z,73.98
2018-02-19T22:36:23.156Z,73.89
2018-02-19T22:38:50.895Z,74.01
2018-02-19T22:41:18.388Z,74.06
2018-02-19T22:43:45.869Z,74.35
2018-02-19T22:46:13.328Z,74.15
2018-02-19T22:48:40.812Z,73.68
2018-02-19T22:51:08.283Z,73.72
2018-02-19T22:53:35.833Z,73.61
2018-02-19T22:56:03.354Z,73.20
2018-02-19T22:58:30.859Z,72.85
2018-02-19T23:00:58.345Z,72.60
2018-02-19T23:03:25.828Z,72.39
2018-02-19T23:05:53.307Z,72.79
2018-02-19T23:08:20.805Z,73.02
2018-02-19T23:10:48.284Z,72.80
2018-02-19T23:13:15.747Z,72.84
2018-02-19T23:15:43.231Z,73.05
2018-02-19T23:18:10.699Z,72.81
2018-02-19T23:20:38.362Z,72.74
2018-02-19T23:23:05.847Z,72.41
2018-02-19T23:25:33.319Z,72.44
2018-02-19T23:28:00.811Z,72.38
2018-02-19T23:30:28.500Z,72.82
2018-02-19T23:32:55.986Z,72.96
2018-02-19T23:35:23.455Z,73.11
2018-02-19T23:37:50.993Z,73.09
2018-02-19T23:40:18.445Z,72.93
2018-02-19T23:42:45.924Z,72.72
2018-02-19T23:45:13.390Z,72.43
2018-02-19T23:47:40.858Z,72.65
2018-02-19T23:50:08.932Z,72.63
2018-02-19T23:52:36.573Z,72.62
2018-02-19T23:55:04.059Z,72.62
2018-02-19T23:57:31.572Z,72.64
2018-02-19T23:59:59.036Z,72.46
